Terminal Aerodrome Forecast
Issued by NWS Grand Rapids, MI

Home | Current Version | Previous Version | Text Only | Print | Product List | Glossary On
Versions: 1 2 3 4 5 6 7 8 9 10 11 12 13
725
FTUS43 KGRR 241138
TAFGRR
TAF
KGRR 241138Z 2412/2512 20007KT P6SM SCT250
     FM241600 22011G19KT P6SM SCT250
     FM250000 20005KT P6SM BKN100=

USA.gov is the U.S. government's official web portal to all federal, state and local government web resources and services.